Merlin — WDD6426 — position and weather

sailwx.info

Track history (hours):
 
Tides and Currents Weather Stations Pressure Air Temp Water Temp Dewpoint Dewpoint Depression Visibility Wind Speed Wind Dir Waves Ship Positions

Merlin

Owner: Merlin Marine Corp., San Diego, CA. More information available from US FCC via Universal Licensing System and Coast Guard Vessel Documentation Center.

Last reported at 2017-Sep-25 00:41 UTC. Time now 2017-Sep-26 21:41 UTC.
Position N 32°44' W 117°13'.

Type: SAR. MMSI: 367409000.

Date/timePositionNaut miles runAvg speedWind from/ knotsBaromVisibWave heightAir tempDewpointWater temp
2017-Sep-25 00:41N 32°44' W 117°13'0 0.0
2017-Sep-25 00:30N 32°44' W 117°13'0 0.6
2017-Sep-25 00:00N 32°43' W 117°13'4 7.3
2017-Sep-24 23:30N 32°40' W 117°14'4 8.2
2017-Sep-24 23:00N 32°41' W 117°19'5 9.6
2017-Sep-24 22:30N 32°44' W 117°23'5 9.7
2017-Sep-24 22:00N 32°47' W 117°27'5 9.5
2017-Sep-24 21:30N 32°50' W 117°32'5 9.3
2017-Sep-24 21:00N 32°53' W 117°36'5 9.4
2017-Sep-24 20:30N 32°56' W 117°40'5 9.3
2017-Sep-24 20:00N 32°59' W 117°45'5 9.2
2017-Sep-24 19:30N 33°01' W 117°49'5 9.1
2017-Sep-24 19:00N 33°04' W 117°54'5 9.1
2017-Sep-24 18:30N 33°07' W 117°58'4 8.7
2017-Sep-24 18:00N 33°10' W 118°02'4 8.6
2017-Sep-24 17:30N 33°12' W 118°06'4 8.7
2017-Sep-24 17:00N 33°15' W 118°10'4 8.6
2017-Sep-24 16:30N 33°17' W 118°14'4 8.7
2017-Sep-24 16:00N 33°20' W 118°18'  
2017-Sep-18 00:03N 33°21' W 118°20'0 0.4
2017-Sep-17 23:56N 33°21' W 118°20'0 0.1
2017-Sep-17 23:27N 33°21' W 118°20'2 4.1
2017-Sep-17 23:00N 33°20' W 118°17'5 8.9
2017-Sep-17 22:29N 33°18' W 118°13'4 8.8
2017-Sep-17 22:00N 33°15' W 118°09'4 8.9
2017-Sep-17 21:30N 33°12' W 118°05'5 9.0
2017-Sep-17 21:00N 33°09' W 118°01'5 9.0
2017-Sep-17 20:30N 33°07' W 117°57'4 8.9
2017-Sep-17 20:00N 33°04' W 117°53'4 8.7
2017-Sep-17 19:30N 33°01' W 117°48'4 8.8
2017-Sep-17 19:01N 32°59' W 117°44'4 8.7
2017-Sep-17 18:31N 32°56' W 117°40'4 8.9
2017-Sep-17 18:00N 32°53' W 117°36'5 9.2
2017-Sep-17 17:30N 32°50' W 117°32'5 9.1
2017-Sep-17 17:00N 32°47' W 117°27'4 9.0
2017-Sep-17 16:30N 32°45' W 117°23'4 8.7
2017-Sep-17 16:00N 32°42' W 117°19'2 4.0
2017-Sep-17 15:30N 32°41' W 117°17'1 2.6
2017-Sep-17 15:00N 32°40' W 117°16'2 4.1
2017-Sep-17 14:30N 32°40' W 117°14'3 6.3
2017-Sep-17 14:00N 32°44' W 117°13'0 0.0
2017-Sep-16 00:44N 32°44' W 117°13'0 0.2
2017-Sep-16 00:30N 32°44' W 117°13'2 3.6
2017-Sep-16 00:00N 32°42' W 117°14'3 6.4
2017-Sep-15 23:30N 32°39' W 117°16'612.4
2017-Sep-15 23:00N 32°42' W 117°23'612.3
2017-Sep-15 22:30N 32°45' W 117°29'3 6.3
2017-Sep-15 22:00N 32°43' W 117°26'2 0.5
2017-Sep-15 18:23N 32°44' W 117°25'1 2.8
2017-Sep-15 18:00N 32°44' W 117°26'1 1.7
2017-Sep-15 17:30N 32°44' W 117°25'4 7.1
2017-Sep-15 17:00N 32°47' W 117°28'2 3.7
2017-Sep-15 16:30N 32°46' W 117°26'2 3.5
2017-Sep-15 16:00N 32°45' W 117°25'510.3
2017-Sep-15 15:30N 32°42' W 117°20'510.1
2017-Sep-15 15:00N 32°39' W 117°15'3 5.9
2017-Sep-15 14:30N 32°42' W 117°14'0 0.0
2017-Sep-15 14:00N 32°42' W 117°14'2 3.5
2017-Sep-15 13:30N 32°44' W 117°13'0 0.0
2017-Sep-15 13:00N 32°44' W 117°13'  
Track history (hours):
 
Tides and Currents Weather Stations Pressure Air Temp Water Temp Dewpoint Dewpoint Depression Visibility Wind Speed Wind Dir Waves Ship Positions

Merlin

Owner: Merlin Marine Corp., San Diego, CA. More information available from US FCC via Universal Licensing System and Coast Guard Vessel Documentation Center.

Last reported at 2017-Sep-25 00:41 UTC. Time now 2017-Sep-26 21:41 UTC.
Position N 32°44' W 117°13'.

Type: SAR. MMSI: 367409000.

Date/timePositionNaut miles runAvg speedWind from/ knotsBaromVisibWave heightAir tempDewpointWater temp
2017-Sep-25 00:41N 32°44' W 117°13'0 0.0
2017-Sep-25 00:30N 32°44' W 117°13'0 0.6
2017-Sep-25 00:00N 32°43' W 117°13'4 7.3
2017-Sep-24 23:30N 32°40' W 117°14'4 8.2
2017-Sep-24 23:00N 32°41' W 117°19'5 9.6
2017-Sep-24 22:30N 32°44' W 117°23'5 9.7
2017-Sep-24 22:00N 32°47' W 117°27'5 9.5
2017-Sep-24 21:30N 32°50' W 117°32'5 9.3
2017-Sep-24 21:00N 32°53' W 117°36'5 9.4
2017-Sep-24 20:30N 32°56' W 117°40'5 9.3
2017-Sep-24 20:00N 32°59' W 117°45'5 9.2
2017-Sep-24 19:30N 33°01' W 117°49'5 9.1
2017-Sep-24 19:00N 33°04' W 117°54'5 9.1
2017-Sep-24 18:30N 33°07' W 117°58'4 8.7
2017-Sep-24 18:00N 33°10' W 118°02'4 8.6
2017-Sep-24 17:30N 33°12' W 118°06'4 8.7
2017-Sep-24 17:00N 33°15' W 118°10'4 8.6
2017-Sep-24 16:30N 33°17' W 118°14'4 8.7
2017-Sep-24 16:00N 33°20' W 118°18'  
2017-Sep-18 00:03N 33°21' W 118°20'0 0.4
2017-Sep-17 23:56N 33°21' W 118°20'0 0.1
2017-Sep-17 23:27N 33°21' W 118°20'2 4.1
2017-Sep-17 23:00N 33°20' W 118°17'5 8.9
2017-Sep-17 22:29N 33°18' W 118°13'4 8.8
2017-Sep-17 22:00N 33°15' W 118°09'4 8.9
2017-Sep-17 21:30N 33°12' W 118°05'5 9.0
2017-Sep-17 21:00N 33°09' W 118°01'5 9.0
2017-Sep-17 20:30N 33°07' W 117°57'4 8.9
2017-Sep-17 20:00N 33°04' W 117°53'4 8.7
2017-Sep-17 19:30N 33°01' W 117°48'4 8.8
2017-Sep-17 19:01N 32°59' W 117°44'4 8.7
2017-Sep-17 18:31N 32°56' W 117°40'4 8.9
2017-Sep-17 18:00N 32°53' W 117°36'5 9.2
2017-Sep-17 17:30N 32°50' W 117°32'5 9.1
2017-Sep-17 17:00N 32°47' W 117°27'4 9.0
2017-Sep-17 16:30N 32°45' W 117°23'4 8.7
2017-Sep-17 16:00N 32°42' W 117°19'2 4.0
2017-Sep-17 15:30N 32°41' W 117°17'1 2.6
2017-Sep-17 15:00N 32°40' W 117°16'2 4.1
2017-Sep-17 14:30N 32°40' W 117°14'3 6.3
2017-Sep-17 14:00N 32°44' W 117°13'0 0.0
2017-Sep-16 00:44N 32°44' W 117°13'0 0.2
2017-Sep-16 00:30N 32°44' W 117°13'2 3.6
2017-Sep-16 00:00N 32°42' W 117°14'3 6.4
2017-Sep-15 23:30N 32°39' W 117°16'612.4
2017-Sep-15 23:00N 32°42' W 117°23'612.3
2017-Sep-15 22:30N 32°45' W 117°29'3 6.3
2017-Sep-15 22:00N 32°43' W 117°26'2 0.5
2017-Sep-15 18:23N 32°44' W 117°25'1 2.8
2017-Sep-15 18:00N 32°44' W 117°26'1 1.7
2017-Sep-15 17:30N 32°44' W 117°25'4 7.1
2017-Sep-15 17:00N 32°47' W 117°28'2 3.7
2017-Sep-15 16:30N 32°46' W 117°26'2 3.5
2017-Sep-15 16:00N 32°45' W 117°25'510.3
2017-Sep-15 15:30N 32°42' W 117°20'510.1
2017-Sep-15 15:00N 32°39' W 117°15'3 5.9
2017-Sep-15 14:30N 32°42' W 117°14'0 0.0
2017-Sep-15 14:00N 32°42' W 117°14'2 3.5
2017-Sep-15 13:30N 32°44' W 117°13'0 0.0
2017-Sep-15 13:00N 32°44' W 117°13'  

Dump ship's entire track history